sensor_id;sensor_type;location;lat;lon;timestamp;P1;durP1;ratioP1;P2;durP2;ratioP2
20731;SDS011;10527;52.124;5.196;2022-12-18T00:01:31;40.63;;;22.13;;
20731;SDS011;10527;52.124;5.196;2022-12-18T00:04:03;40.63;;;21.23;;
20731;SDS011;10527;52.124;5.196;2022-12-18T00:06:38;41.10;;;21.83;;
20731;SDS011;10527;52.124;5.196;2022-12-18T00:09:06;42.80;;;23.70;;
20731;SDS011;10527;52.124;5.196;2022-12-18T00:11:33;44.10;;;23.93;;
20731;SDS011;10527;52.124;5.196;2022-12-18T00:13:59;47.40;;;24.83;;
20731;SDS011;10527;52.124;5.196;2022-12-18T00:16:27;47.30;;;23.07;;
20731;SDS011;10527;52.124;5.196;2022-12-18T00:18:57;43.07;;;23.33;;
20731;SDS011;10527;52.124;5.196;2022-12-18T00:21:25;42.93;;;22.83;;
20731;SDS011;10527;52.124;5.196;2022-12-18T00:23:53;41.03;;;22.43;;
20731;SDS011;10527;52.124;5.196;2022-12-18T00:26:22;43.90;;;22.83;;
20731;SDS011;10527;52.124;5.196;2022-12-18T00:28:57;42.33;;;21.00;;
20731;SDS011;10527;52.124;5.196;2022-12-18T00:31:45;35.97;;;20.23;;
20731;SDS011;10527;52.124;5.196;2022-12-18T00:34:12;46.47;;;23.37;;
20731;SDS011;10527;52.124;5.196;2022-12-18T00:36:40;38.77;;;21.47;;
20731;SDS011;10527;52.124;5.196;2022-12-18T00:39:07;32.67;;;20.37;;
20731;SDS011;10527;52.124;5.196;2022-12-18T00:41:36;42.63;;;22.87;;
20731;SDS011;10527;52.124;5.196;2022-12-18T00:44:21;43.83;;;22.60;;
20731;SDS011;10527;52.124;5.196;2022-12-18T00:46:48;40.20;;;21.63;;
20731;SDS011;10527;52.124;5.196;2022-12-18T00:49:18;41.97;;;21.80;;
20731;SDS011;10527;52.124;5.196;2022-12-18T00:52:01;34.03;;;18.50;;
20731;SDS011;10527;52.124;5.196;2022-12-18T00:54:28;42.27;;;20.90;;
20731;SDS011;10527;52.124;5.196;2022-12-18T00:56:54;40.27;;;21.87;;
20731;SDS011;10527;52.124;5.196;2022-12-18T00:59:22;40.37;;;20.63;;
20731;SDS011;10527;52.124;5.196;2022-12-18T01:01:49;38.33;;;21.73;;
20731;SDS011;10527;52.124;5.196;2022-12-18T01:04:16;41.07;;;21.87;;
20731;SDS011;10527;52.124;5.196;2022-12-18T01:06:43;38.50;;;19.40;;
20731;SDS011;10527;52.124;5.196;2022-12-18T01:09:10;41.10;;;20.10;;
20731;SDS011;10527;52.124;5.196;2022-12-18T01:11:36;42.03;;;21.60;;
20731;SDS011;10527;52.124;5.196;2022-12-18T01:14:05;34.37;;;18.47;;
20731;SDS011;10527;52.124;5.196;2022-12-18T01:16:34;39.13;;;20.27;;
20731;SDS011;10527;52.124;5.196;2022-12-18T01:19:01;37.80;;;20.57;;
20731;SDS011;10527;52.124;5.196;2022-12-18T01:21:28;37.27;;;20.40;;
20731;SDS011;10527;52.124;5.196;2022-12-18T01:23:55;39.27;;;22.30;;
20731;SDS011;10527;52.124;5.196;2022-12-18T01:26:23;42.20;;;21.50;;
20731;SDS011;10527;52.124;5.196;2022-12-18T01:28:55;42.17;;;21.37;;
20731;SDS011;10527;52.124;5.196;2022-12-18T01:31:27;43.27;;;22.37;;
20731;SDS011;10527;52.124;5.196;2022-12-18T01:34:00;42.47;;;22.03;;
20731;SDS011;10527;52.124;5.196;2022-12-18T01:36:32;44.80;;;22.70;;
20731;SDS011;10527;52.124;5.196;2022-12-18T01:39:06;42.90;;;21.83;;
20731;SDS011;10527;52.124;5.196;2022-12-18T01:41:37;42.17;;;21.20;;
20731;SDS011;10527;52.124;5.196;2022-12-18T01:50:15;44.83;;;24.10;;
20731;SDS011;10527;52.124;5.196;2022-12-18T01:58:18;44.03;;;23.67;;
20731;SDS011;10527;52.124;5.196;2022-12-18T02:00:52;49.40;;;23.67;;
20731;SDS011;10527;52.124;5.196;2022-12-18T02:03:21;44.67;;;22.77;;
20731;SDS011;10527;52.124;5.196;2022-12-18T02:11:50;37.20;;;20.67;;
20731;SDS011;10527;52.124;5.196;2022-12-18T02:14:44;36.00;;;19.07;;
20731;SDS011;10527;52.124;5.196;2022-12-18T02:20:13;42.83;;;23.07;;
20731;SDS011;10527;52.124;5.196;2022-12-18T02:23:03;44.20;;;21.53;;
20731;SDS011;10527;52.124;5.196;2022-12-18T02:28:45;36.40;;;20.77;;
20731;SDS011;10527;52.124;5.196;2022-12-18T02:31:25;43.40;;;21.83;;
20731;SDS011;10527;52.124;5.196;2022-12-18T02:33:59;38.80;;;20.53;;
20731;SDS011;10527;52.124;5.196;2022-12-18T02:36:30;39.77;;;20.73;;
20731;SDS011;10527;52.124;5.196;2022-12-18T02:39:00;38.77;;;21.20;;
20731;SDS011;10527;52.124;5.196;2022-12-18T02:41:35;38.57;;;20.53;;
20731;SDS011;10527;52.124;5.196;2022-12-18T02:44:07;42.73;;;21.47;;
20731;SDS011;10527;52.124;5.196;2022-12-18T02:46:42;37.63;;;20.57;;
20731;SDS011;10527;52.124;5.196;2022-12-18T02:58:04;38.03;;;20.83;;
20731;SDS011;10527;52.124;5.196;2022-12-18T03:00:58;37.70;;;20.40;;
20731;SDS011;10527;52.124;5.196;2022-12-18T03:03:42;40.20;;;20.87;;
20731;SDS011;10527;52.124;5.196;2022-12-18T03:09:28;39.73;;;19.93;;
20731;SDS011;10527;52.124;5.196;2022-12-18T03:12:04;41.10;;;20.57;;
20731;SDS011;10527;52.124;5.196;2022-12-18T03:14:57;37.47;;;20.77;;
20731;SDS011;10527;52.124;5.196;2022-12-18T03:17:44;36.20;;;20.60;;
20731;SDS011;10527;52.124;5.196;2022-12-18T03:20:29;36.40;;;20.23;;
20731;SDS011;10527;52.124;5.196;2022-12-18T03:23:06;36.57;;;20.80;;
20731;SDS011;10527;52.124;5.196;2022-12-18T03:25:52;38.60;;;20.10;;
20731;SDS011;10527;52.124;5.196;2022-12-18T03:28:32;40.77;;;21.10;;
20731;SDS011;10527;52.124;5.196;2022-12-18T03:31:05;40.63;;;22.27;;
20731;SDS011;10527;52.124;5.196;2022-12-18T03:33:38;44.30;;;22.73;;
20731;SDS011;10527;52.124;5.196;2022-12-18T03:36:13;39.03;;;20.80;;
20731;SDS011;10527;52.124;5.196;2022-12-18T03:38:40;37.80;;;21.17;;
20731;SDS011;10527;52.124;5.196;2022-12-18T03:41:15;40.63;;;21.47;;
20731;SDS011;10527;52.124;5.196;2022-12-18T03:44:03;40.23;;;21.27;;
20731;SDS011;10527;52.124;5.196;2022-12-18T03:47:05;40.57;;;21.30;;
20731;SDS011;10527;52.124;5.196;2022-12-18T03:52:28;37.97;;;22.37;;
20731;SDS011;10527;52.124;5.196;2022-12-18T03:55:05;38.23;;;21.00;;
20731;SDS011;10527;52.124;5.196;2022-12-18T03:57:35;38.23;;;21.30;;
20731;SDS011;10527;52.124;5.196;2022-12-18T04:00:05;40.50;;;22.57;;
20731;SDS011;10527;52.124;5.196;2022-12-18T04:02:38;36.53;;;20.27;;
20731;SDS011;10527;52.124;5.196;2022-12-18T04:05:11;39.10;;;20.33;;
20731;SDS011;10527;52.124;5.196;2022-12-18T04:07:41;38.23;;;20.40;;
20731;SDS011;10527;52.124;5.196;2022-12-18T04:10:11;33.13;;;19.60;;
20731;SDS011;10527;52.124;5.196;2022-12-18T04:12:41;35.13;;;19.13;;
20731;SDS011;10527;52.124;5.196;2022-12-18T04:15:08;34.53;;;19.90;;
20731;SDS011;10527;52.124;5.196;2022-12-18T04:17:47;35.00;;;19.33;;
20731;SDS011;10527;52.124;5.196;2022-12-18T04:20:16;35.97;;;20.03;;
20731;SDS011;10527;52.124;5.196;2022-12-18T04:22:43;33.73;;;19.87;;
20731;SDS011;10527;52.124;5.196;2022-12-18T04:25:11;36.00;;;19.57;;
20731;SDS011;10527;52.124;5.196;2022-12-18T04:27:38;32.83;;;18.57;;
20731;SDS011;10527;52.124;5.196;2022-12-18T04:30:05;33.70;;;18.20;;
20731;SDS011;10527;52.124;5.196;2022-12-18T04:32:33;32.93;;;18.47;;
20731;SDS011;10527;52.124;5.196;2022-12-18T04:35:00;30.00;;;16.67;;
20731;SDS011;10527;52.124;5.196;2022-12-18T04:37:28;31.80;;;16.97;;
20731;SDS011;10527;52.124;5.196;2022-12-18T04:39:54;29.73;;;17.20;;
20731;SDS011;10527;52.124;5.196;2022-12-18T04:42:21;29.50;;;17.30;;
20731;SDS011;10527;52.124;5.196;2022-12-18T04:44:48;28.70;;;17.23;;
20731;SDS011;10527;52.124;5.196;2022-12-18T04:47:16;26.03;;;16.00;;
20731;SDS011;10527;52.124;5.196;2022-12-18T04:49:43;29.17;;;15.87;;
20731;SDS011;10527;52.124;5.196;2022-12-18T04:52:09;28.70;;;16.80;;
20731;SDS011;10527;52.124;5.196;2022-12-18T04:54:36;31.03;;;16.90;;
20731;SDS011;10527;52.124;5.196;2022-12-18T04:57:03;27.67;;;15.97;;
20731;SDS011;10527;52.124;5.196;2022-12-18T04:59:29;28.57;;;15.97;;
20731;SDS011;10527;52.124;5.196;2022-12-18T05:01:56;28.27;;;15.53;;
20731;SDS011;10527;52.124;5.196;2022-12-18T05:04:23;28.67;;;16.47;;
20731;SDS011;10527;52.124;5.196;2022-12-18T05:06:50;27.40;;;15.53;;
20731;SDS011;10527;52.124;5.196;2022-12-18T05:09:17;26.80;;;15.57;;
20731;SDS011;10527;52.124;5.196;2022-12-18T05:11:44;26.93;;;15.67;;
20731;SDS011;10527;52.124;5.196;2022-12-18T05:14:12;25.17;;;14.90;;
20731;SDS011;10527;52.124;5.196;2022-12-18T05:16:39;25.07;;;14.93;;
20731;SDS011;10527;52.124;5.196;2022-12-18T05:19:06;25.43;;;15.40;;
20731;SDS011;10527;52.124;5.196;2022-12-18T05:21:33;27.13;;;15.13;;
20731;SDS011;10527;52.124;5.196;2022-12-18T05:24:00;25.37;;;14.73;;
20731;SDS011;10527;52.124;5.196;2022-12-18T05:26:26;25.70;;;15.77;;
20731;SDS011;10527;52.124;5.196;2022-12-18T05:28:53;23.13;;;14.47;;
20731;SDS011;10527;52.124;5.196;2022-12-18T05:31:24;24.77;;;14.33;;
20731;SDS011;10527;52.124;5.196;2022-12-18T05:33:53;24.77;;;14.57;;
20731;SDS011;10527;52.124;5.196;2022-12-18T05:36:20;21.87;;;13.63;;
20731;SDS011;10527;52.124;5.196;2022-12-18T05:38:47;22.53;;;14.03;;
20731;SDS011;10527;52.124;5.196;2022-12-18T05:41:14;19.57;;;13.33;;
20731;SDS011;10527;52.124;5.196;2022-12-18T05:43:42;19.80;;;13.73;;
20731;SDS011;10527;52.124;5.196;2022-12-18T05:46:13;21.00;;;13.47;;
20731;SDS011;10527;52.124;5.196;2022-12-18T05:48:44;19.80;;;12.90;;
20731;SDS011;10527;52.124;5.196;2022-12-18T05:51:13;22.87;;;13.20;;
20731;SDS011;10527;52.124;5.196;2022-12-18T05:53:42;20.53;;;12.90;;
20731;SDS011;10527;52.124;5.196;2022-12-18T05:56:11;21.07;;;13.07;;
20731;SDS011;10527;52.124;5.196;2022-12-18T05:58:44;18.63;;;12.47;;
20731;SDS011;10527;52.124;5.196;2022-12-18T06:01:16;20.70;;;11.83;;
20731;SDS011;10527;52.124;5.196;2022-12-18T06:03:47;21.30;;;12.80;;
20731;SDS011;10527;52.124;5.196;2022-12-18T06:06:16;19.17;;;12.10;;
20731;SDS011;10527;52.124;5.196;2022-12-18T06:08:50;19.67;;;12.43;;
20731;SDS011;10527;52.124;5.196;2022-12-18T06:11:19;19.87;;;12.30;;
20731;SDS011;10527;52.124;5.196;2022-12-18T06:13:50;18.40;;;11.63;;
20731;SDS011;10527;52.124;5.196;2022-12-18T06:16:24;17.77;;;12.27;;
20731;SDS011;10527;52.124;5.196;2022-12-18T06:18:52;16.23;;;11.33;;
20731;SDS011;10527;52.124;5.196;2022-12-18T06:21:19;19.77;;;11.67;;
20731;SDS011;10527;52.124;5.196;2022-12-18T06:23:45;19.73;;;11.43;;
20731;SDS011;10527;52.124;5.196;2022-12-18T06:26:14;18.53;;;11.53;;
20731;SDS011;10527;52.124;5.196;2022-12-18T06:28:41;18.13;;;11.77;;
20731;SDS011;10527;52.124;5.196;2022-12-18T06:31:11;18.70;;;12.00;;
20731;SDS011;10527;52.124;5.196;2022-12-18T06:33:38;19.63;;;12.20;;
20731;SDS011;10527;52.124;5.196;2022-12-18T06:36:10;15.40;;;11.03;;
20731;SDS011;10527;52.124;5.196;2022-12-18T06:38:40;17.17;;;10.90;;
20731;SDS011;10527;52.124;5.196;2022-12-18T06:41:10;16.97;;;11.43;;
20731;SDS011;10527;52.124;5.196;2022-12-18T06:43:43;16.93;;;11.03;;
20731;SDS011;10527;52.124;5.196;2022-12-18T06:46:10;16.00;;;10.47;;
20731;SDS011;10527;52.124;5.196;2022-12-18T06:48:38;16.37;;;10.53;;
20731;SDS011;10527;52.124;5.196;2022-12-18T06:51:06;15.93;;;11.23;;
20731;SDS011;10527;52.124;5.196;2022-12-18T06:53:33;17.67;;;11.50;;
20731;SDS011;10527;52.124;5.196;2022-12-18T06:56:04;17.80;;;12.00;;
20731;SDS011;10527;52.124;5.196;2022-12-18T06:58:36;19.73;;;11.53;;
20731;SDS011;10527;52.124;5.196;2022-12-18T07:01:09;17.23;;;10.53;;
20731;SDS011;10527;52.124;5.196;2022-12-18T07:03:38;16.97;;;11.57;;
20731;SDS011;10527;52.124;5.196;2022-12-18T07:06:12;17.27;;;11.13;;
20731;SDS011;10527;52.124;5.196;2022-12-18T07:08:42;18.83;;;11.37;;
20731;SDS011;10527;52.124;5.196;2022-12-18T07:11:10;17.30;;;10.57;;
20731;SDS011;10527;52.124;5.196;2022-12-18T07:13:37;17.53;;;10.43;;
20731;SDS011;10527;52.124;5.196;2022-12-18T07:16:07;15.07;;;10.30;;
20731;SDS011;10527;52.124;5.196;2022-12-18T07:18:46;15.40;;;10.07;;
20731;SDS011;10527;52.124;5.196;2022-12-18T07:21:14;17.40;;;10.07;;
20731;SDS011;10527;52.124;5.196;2022-12-18T07:23:44;14.70;;;11.07;;
20731;SDS011;10527;52.124;5.196;2022-12-18T07:26:14;14.37;;;10.97;;
20731;SDS011;10527;52.124;5.196;2022-12-18T07:28:45;16.83;;;10.77;;
20731;SDS011;10527;52.124;5.196;2022-12-18T07:31:16;16.67;;;11.13;;
20731;SDS011;10527;52.124;5.196;2022-12-18T07:33:47;15.87;;;10.87;;
20731;SDS011;10527;52.124;5.196;2022-12-18T07:36:16;18.47;;;10.50;;
20731;SDS011;10527;52.124;5.196;2022-12-18T07:38:43;16.57;;;10.60;;
20731;SDS011;10527;52.124;5.196;2022-12-18T07:41:14;15.60;;;10.00;;
20731;SDS011;10527;52.124;5.196;2022-12-18T07:43:41;15.63;;;10.77;;
20731;SDS011;10527;52.124;5.196;2022-12-18T07:46:11;16.53;;;10.63;;
20731;SDS011;10527;52.124;5.196;2022-12-18T07:48:40;17.40;;;11.03;;
20731;SDS011;10527;52.124;5.196;2022-12-18T07:51:11;19.47;;;11.37;;
20731;SDS011;10527;52.124;5.196;2022-12-18T07:53:39;17.83;;;11.40;;
20731;SDS011;10527;52.124;5.196;2022-12-18T07:56:08;14.80;;;10.37;;
20731;SDS011;10527;52.124;5.196;2022-12-18T07:58:56;17.30;;;11.20;;
20731;SDS011;10527;52.124;5.196;2022-12-18T08:01:24;17.80;;;11.07;;
20731;SDS011;10527;52.124;5.196;2022-12-18T08:03:51;18.10;;;11.60;;
20731;SDS011;10527;52.124;5.196;2022-12-18T08:06:18;19.33;;;12.77;;
20731;SDS011;10527;52.124;5.196;2022-12-18T08:08:53;15.63;;;11.30;;
20731;SDS011;10527;52.124;5.196;2022-12-18T08:11:22;14.40;;;10.20;;
20731;SDS011;10527;52.124;5.196;2022-12-18T08:13:52;18.90;;;11.43;;
20731;SDS011;10527;52.124;5.196;2022-12-18T08:16:19;18.23;;;11.87;;
20731;SDS011;10527;52.124;5.196;2022-12-18T08:18:51;15.87;;;10.63;;
20731;SDS011;10527;52.124;5.196;2022-12-18T08:21:21;15.93;;;10.30;;
20731;SDS011;10527;52.124;5.196;2022-12-18T08:23:55;16.77;;;10.60;;
20731;SDS011;10527;52.124;5.196;2022-12-18T08:26:26;16.77;;;10.20;;
20731;SDS011;10527;52.124;5.196;2022-12-18T08:28:57;14.53;;;9.93;;
20731;SDS011;10527;52.124;5.196;2022-12-18T08:31:26;14.23;;;10.33;;
20731;SDS011;10527;52.124;5.196;2022-12-18T08:33:55;16.63;;;11.07;;
20731;SDS011;10527;52.124;5.196;2022-12-18T08:36:23;15.50;;;10.40;;
20731;SDS011;10527;52.124;5.196;2022-12-18T08:38:52;15.07;;;10.60;;
20731;SDS011;10527;52.124;5.196;2022-12-18T08:41:19;13.63;;;9.87;;
20731;SDS011;10527;52.124;5.196;2022-12-18T08:43:48;11.97;;;8.87;;
20731;SDS011;10527;52.124;5.196;2022-12-18T08:46:34;15.87;;;11.13;;
20731;SDS011;10527;52.124;5.196;2022-12-18T08:49:06;14.77;;;9.77;;
20731;SDS011;10527;52.124;5.196;2022-12-18T08:51:37;17.53;;;10.53;;
20731;SDS011;10527;52.124;5.196;2022-12-18T08:54:05;15.23;;;10.40;;
20731;SDS011;10527;52.124;5.196;2022-12-18T08:56:33;14.43;;;9.53;;
20731;SDS011;10527;52.124;5.196;2022-12-18T08:59:01;15.53;;;9.40;;
20731;SDS011;10527;52.124;5.196;2022-12-18T09:01:29;15.07;;;10.93;;
20731;SDS011;10527;52.124;5.196;2022-12-18T09:03:57;16.07;;;10.00;;
20731;SDS011;10527;52.124;5.196;2022-12-18T09:06:23;14.87;;;10.73;;
20731;SDS011;10527;52.124;5.196;2022-12-18T09:08:53;18.37;;;10.43;;
20731;SDS011;10527;52.124;5.196;2022-12-18T09:11:21;15.70;;;9.80;;
20731;SDS011;10527;52.124;5.196;2022-12-18T09:13:54;14.23;;;10.63;;
20731;SDS011;10527;52.124;5.196;2022-12-18T09:16:24;14.00;;;9.97;;
20731;SDS011;10527;52.124;5.196;2022-12-18T09:18:58;16.37;;;9.73;;
20731;SDS011;10527;52.124;5.196;2022-12-18T09:21:27;15.03;;;10.47;;
20731;SDS011;10527;52.124;5.196;2022-12-18T09:24:02;14.73;;;10.00;;
20731;SDS011;10527;52.124;5.196;2022-12-18T09:26:34;14.17;;;10.40;;
20731;SDS011;10527;52.124;5.196;2022-12-18T09:29:02;16.37;;;10.27;;
20731;SDS011;10527;52.124;5.196;2022-12-18T09:31:30;15.23;;;10.60;;
20731;SDS011;10527;52.124;5.196;2022-12-18T09:33:57;14.83;;;10.07;;
20731;SDS011;10527;52.124;5.196;2022-12-18T09:36:23;15.30;;;10.17;;
20731;SDS011;10527;52.124;5.196;2022-12-18T09:38:50;14.00;;;9.60;;
20731;SDS011;10527;52.124;5.196;2022-12-18T09:47:13;13.60;;;10.43;;
20731;SDS011;10527;52.124;5.196;2022-12-18T09:50:05;15.17;;;10.07;;
20731;SDS011;10527;52.124;5.196;2022-12-18T09:52:50;15.80;;;9.70;;
20731;SDS011;10527;52.124;5.196;2022-12-18T09:55:25;13.53;;;9.83;;
20731;SDS011;10527;52.124;5.196;2022-12-18T09:58:16;15.60;;;10.40;;
20731;SDS011;10527;52.124;5.196;2022-12-18T10:00:51;15.93;;;10.13;;
20731;SDS011;10527;52.124;5.196;2022-12-18T10:03:21;16.63;;;10.50;;
20731;SDS011;10527;52.124;5.196;2022-12-18T10:06:06;14.13;;;10.67;;
20731;SDS011;10527;52.124;5.196;2022-12-18T10:17:55;16.30;;;10.63;;
20731;SDS011;10527;52.124;5.196;2022-12-18T10:20:48;15.50;;;9.90;;
20731;SDS011;10527;52.124;5.196;2022-12-18T10:23:26;16.63;;;10.73;;
20731;SDS011;10527;52.124;5.196;2022-12-18T10:26:17;16.03;;;9.60;;
20731;SDS011;10527;52.124;5.196;2022-12-18T10:28:44;14.60;;;10.70;;
20731;SDS011;10527;52.124;5.196;2022-12-18T10:31:16;17.57;;;10.60;;
20731;SDS011;10527;52.124;5.196;2022-12-18T10:33:49;17.37;;;10.77;;
20731;SDS011;10527;52.124;5.196;2022-12-18T10:36:20;15.77;;;10.50;;
20731;SDS011;10527;52.124;5.196;2022-12-18T10:38:50;13.97;;;10.10;;
20731;SDS011;10527;52.124;5.196;2022-12-18T10:43:47;15.83;;;10.53;;
20731;SDS011;10527;52.124;5.196;2022-12-18T10:46:15;14.47;;;9.23;;
20731;SDS011;10527;52.124;5.196;2022-12-18T10:54:02;15.50;;;9.67;;
20731;SDS011;10527;52.124;5.196;2022-12-18T10:56:38;16.67;;;10.30;;
20731;SDS011;10527;52.124;5.196;2022-12-18T10:59:11;13.93;;;10.33;;
20731;SDS011;10527;52.124;5.196;2022-12-18T11:04:25;15.37;;;10.37;;
20731;SDS011;10527;52.124;5.196;2022-12-18T11:09:32;15.97;;;9.50;;
20731;SDS011;10527;52.124;5.196;2022-12-18T11:12:25;14.50;;;9.60;;
20731;SDS011;10527;52.124;5.196;2022-12-18T11:14:57;18.07;;;10.30;;
20731;SDS011;10527;52.124;5.196;2022-12-18T11:17:29;15.37;;;10.37;;
20731;SDS011;10527;52.124;5.196;2022-12-18T11:20:02;11.73;;;9.03;;
20731;SDS011;10527;52.124;5.196;2022-12-18T11:23:01;14.53;;;9.50;;
20731;SDS011;10527;52.124;5.196;2022-12-18T11:25:32;17.67;;;10.33;;
20731;SDS011;10527;52.124;5.196;2022-12-18T11:28:36;16.50;;;10.43;;
20731;SDS011;10527;52.124;5.196;2022-12-18T11:36:59;17.67;;;9.63;;
20731;SDS011;10527;52.124;5.196;2022-12-18T11:42:20;15.53;;;9.50;;
20731;SDS011;10527;52.124;5.196;2022-12-18T11:47:58;15.53;;;9.23;;
20731;SDS011;10527;52.124;5.196;2022-12-18T11:50:52;16.07;;;9.40;;
20731;SDS011;10527;52.124;5.196;2022-12-18T11:53:22;16.43;;;9.47;;
20731;SDS011;10527;52.124;5.196;2022-12-18T11:56:04;12.63;;;9.10;;
20731;SDS011;10527;52.124;5.196;2022-12-18T11:58:56;14.53;;;9.87;;
20731;SDS011;10527;52.124;5.196;2022-12-18T12:07:45;16.37;;;10.53;;
20731;SDS011;10527;52.124;5.196;2022-12-18T12:10:28;10.80;;;8.47;;
20731;SDS011;10527;52.124;5.196;2022-12-18T12:13:29;12.00;;;8.73;;
20731;SDS011;10527;52.124;5.196;2022-12-18T12:16:12;13.60;;;9.37;;
20731;SDS011;10527;52.124;5.196;2022-12-18T12:21:58;15.43;;;10.30;;
20731;SDS011;10527;52.124;5.196;2022-12-18T12:24:49;15.20;;;10.30;;
20731;SDS011;10527;52.124;5.196;2022-12-18T12:30:50;15.40;;;9.20;;
20731;SDS011;10527;52.124;5.196;2022-12-18T12:39:31;15.77;;;9.53;;
20731;SDS011;10527;52.124;5.196;2022-12-18T12:42:13;15.73;;;10.00;;
20731;SDS011;10527;52.124;5.196;2022-12-18T12:45:26;12.73;;;8.47;;
20731;SDS011;10527;52.124;5.196;2022-12-18T12:48:10;15.73;;;9.20;;
20731;SDS011;10527;52.124;5.196;2022-12-18T12:50:49;13.37;;;9.40;;
20731;SDS011;10527;52.124;5.196;2022-12-18T12:53:26;14.03;;;9.43;;
20731;SDS011;10527;52.124;5.196;2022-12-18T12:56:01;14.93;;;9.20;;
20731;SDS011;10527;52.124;5.196;2022-12-18T13:01:40;15.83;;;9.97;;
20731;SDS011;10527;52.124;5.196;2022-12-18T13:12:58;15.53;;;9.23;;
20731;SDS011;10527;52.124;5.196;2022-12-18T13:16:05;12.63;;;8.87;;
20731;SDS011;10527;52.124;5.196;2022-12-18T13:18:34;14.43;;;8.60;;
20731;SDS011;10527;52.124;5.196;2022-12-18T13:21:04;16.70;;;9.63;;
20731;SDS011;10527;52.124;5.196;2022-12-18T13:23:50;15.27;;;10.20;;
20731;SDS011;10527;52.124;5.196;2022-12-18T13:28:54;14.07;;;9.27;;
20731;SDS011;10527;52.124;5.196;2022-12-18T13:34:17;14.57;;;9.57;;
20731;SDS011;10527;52.124;5.196;2022-12-18T13:36:53;15.97;;;10.03;;
20731;SDS011;10527;52.124;5.196;2022-12-18T13:39:42;16.13;;;10.20;;
20731;SDS011;10527;52.124;5.196;2022-12-18T13:44:56;14.83;;;9.97;;
20731;SDS011;10527;52.124;5.196;2022-12-18T13:50:12;15.10;;;9.57;;
20731;SDS011;10527;52.124;5.196;2022-12-18T13:53:01;15.23;;;10.30;;
20731;SDS011;10527;52.124;5.196;2022-12-18T13:55:31;15.43;;;10.60;;
20731;SDS011;10527;52.124;5.196;2022-12-18T13:58:06;14.93;;;9.70;;
20731;SDS011;10527;52.124;5.196;2022-12-18T14:00:41;16.30;;;10.30;;
20731;SDS011;10527;52.124;5.196;2022-12-18T14:03:24;14.17;;;9.43;;
20731;SDS011;10527;52.124;5.196;2022-12-18T14:06:08;13.30;;;8.93;;
20731;SDS011;10527;52.124;5.196;2022-12-18T14:08:42;16.03;;;9.90;;
20731;SDS011;10527;52.124;5.196;2022-12-18T14:11:17;15.90;;;9.47;;
20731;SDS011;10527;52.124;5.196;2022-12-18T14:13:51;14.20;;;10.03;;
20731;SDS011;10527;52.124;5.196;2022-12-18T14:16:19;15.97;;;9.70;;
20731;SDS011;10527;52.124;5.196;2022-12-18T14:18:50;17.70;;;10.07;;
20731;SDS011;10527;52.124;5.196;2022-12-18T14:21:31;14.10;;;9.80;;
20731;SDS011;10527;52.124;5.196;2022-12-18T14:26:47;17.83;;;10.90;;
20731;SDS011;10527;52.124;5.196;2022-12-18T14:29:29;16.00;;;10.47;;
20731;SDS011;10527;52.124;5.196;2022-12-18T14:34:44;16.57;;;9.90;;
20731;SDS011;10527;52.124;5.196;2022-12-18T14:37:18;18.20;;;11.30;;
20731;SDS011;10527;52.124;5.196;2022-12-18T14:39:53;15.80;;;10.20;;
20731;SDS011;10527;52.124;5.196;2022-12-18T14:42:35;16.27;;;11.00;;
20731;SDS011;10527;52.124;5.196;2022-12-18T14:50:39;17.37;;;10.53;;
20731;SDS011;10527;52.124;5.196;2022-12-18T14:53:23;17.70;;;10.87;;
20731;SDS011;10527;52.124;5.196;2022-12-18T14:55:59;16.03;;;10.20;;
20731;SDS011;10527;52.124;5.196;2022-12-18T14:58:27;15.73;;;9.60;;
20731;SDS011;10527;52.124;5.196;2022-12-18T15:00:54;16.87;;;11.53;;
20731;SDS011;10527;52.124;5.196;2022-12-18T15:03:21;19.63;;;12.00;;
20731;SDS011;10527;52.124;5.196;2022-12-18T15:05:50;16.20;;;10.40;;
20731;SDS011;10527;52.124;5.196;2022-12-18T15:08:35;17.17;;;11.30;;
20731;SDS011;10527;52.124;5.196;2022-12-18T15:11:03;16.40;;;11.00;;
20731;SDS011;10527;52.124;5.196;2022-12-18T15:13:54;16.57;;;10.87;;
20731;SDS011;10527;52.124;5.196;2022-12-18T15:16:21;17.20;;;11.27;;
20731;SDS011;10527;52.124;5.196;2022-12-18T15:18:48;16.57;;;11.57;;
20731;SDS011;10527;52.124;5.196;2022-12-18T15:21:18;17.40;;;11.90;;
20731;SDS011;10527;52.124;5.196;2022-12-18T15:23:48;17.60;;;10.37;;
20731;SDS011;10527;52.124;5.196;2022-12-18T15:26:18;19.60;;;11.87;;
20731;SDS011;10527;52.124;5.196;2022-12-18T15:28:51;17.77;;;11.10;;
20731;SDS011;10527;52.124;5.196;2022-12-18T15:31:28;19.30;;;11.80;;
20731;SDS011;10527;52.124;5.196;2022-12-18T15:36:47;17.33;;;10.53;;
20731;SDS011;10527;52.124;5.196;2022-12-18T15:39:16;18.40;;;11.90;;
20731;SDS011;10527;52.124;5.196;2022-12-18T15:41:43;17.47;;;11.73;;
20731;SDS011;10527;52.124;5.196;2022-12-18T15:44:30;17.00;;;11.87;;
20731;SDS011;10527;52.124;5.196;2022-12-18T15:46:58;20.20;;;12.60;;
20731;SDS011;10527;52.124;5.196;2022-12-18T15:49:25;17.47;;;11.33;;
20731;SDS011;10527;52.124;5.196;2022-12-18T15:51:52;16.77;;;12.03;;
20731;SDS011;10527;52.124;5.196;2022-12-18T15:54:24;18.87;;;11.93;;
20731;SDS011;10527;52.124;5.196;2022-12-18T15:57:09;18.40;;;11.73;;
20731;SDS011;10527;52.124;5.196;2022-12-18T15:59:50;16.07;;;11.57;;
20731;SDS011;10527;52.124;5.196;2022-12-18T16:02:22;20.23;;;11.80;;
20731;SDS011;10527;52.124;5.196;2022-12-18T16:04:51;17.03;;;10.30;;
20731;SDS011;10527;52.124;5.196;2022-12-18T16:07:19;18.40;;;11.17;;
20731;SDS011;10527;52.124;5.196;2022-12-18T16:09:51;19.63;;;12.63;;
20731;SDS011;10527;52.124;5.196;2022-12-18T16:12:19;19.60;;;12.47;;
20731;SDS011;10527;52.124;5.196;2022-12-18T16:14:50;20.17;;;11.40;;
20731;SDS011;10527;52.124;5.196;2022-12-18T16:17:17;19.93;;;13.07;;
20731;SDS011;10527;52.124;5.196;2022-12-18T16:19:44;16.30;;;11.30;;
20731;SDS011;10527;52.124;5.196;2022-12-18T16:22:20;18.27;;;12.23;;
20731;SDS011;10527;52.124;5.196;2022-12-18T16:24:50;18.27;;;11.57;;
20731;SDS011;10527;52.124;5.196;2022-12-18T16:27:19;18.77;;;12.70;;
20731;SDS011;10527;52.124;5.196;2022-12-18T16:29:49;18.33;;;11.97;;
20731;SDS011;10527;52.124;5.196;2022-12-18T16:32:18;17.30;;;12.00;;
20731;SDS011;10527;52.124;5.196;2022-12-18T16:34:48;20.67;;;12.73;;
20731;SDS011;10527;52.124;5.196;2022-12-18T16:37:15;20.80;;;13.47;;
20731;SDS011;10527;52.124;5.196;2022-12-18T16:39:43;21.17;;;13.57;;
20731;SDS011;10527;52.124;5.196;2022-12-18T16:42:17;20.40;;;12.10;;
20731;SDS011;10527;52.124;5.196;2022-12-18T16:44:46;22.57;;;13.27;;
20731;SDS011;10527;52.124;5.196;2022-12-18T16:47:15;22.70;;;12.40;;
20731;SDS011;10527;52.124;5.196;2022-12-18T16:49:43;19.10;;;12.60;;
20731;SDS011;10527;52.124;5.196;2022-12-18T16:52:11;21.47;;;13.43;;
20731;SDS011;10527;52.124;5.196;2022-12-18T16:54:38;20.73;;;13.33;;
20731;SDS011;10527;52.124;5.196;2022-12-18T16:57:05;21.07;;;13.50;;
20731;SDS011;10527;52.124;5.196;2022-12-18T16:59:35;20.13;;;13.70;;
20731;SDS011;10527;52.124;5.196;2022-12-18T17:02:10;23.53;;;13.83;;
20731;SDS011;10527;52.124;5.196;2022-12-18T17:04:48;21.77;;;12.83;;
20731;SDS011;10527;52.124;5.196;2022-12-18T17:07:18;19.87;;;13.00;;
20731;SDS011;10527;52.124;5.196;2022-12-18T17:09:45;21.57;;;13.23;;